Time;durP1;ratioP1;P1;durP2;ratioP2;P2;SDS_P1;SDS_P2;PMS_P1;PMS_P2;Temp;Humidity;BMP_temperature;BMP_pressure;BME280_temperature;BME280_humidity;BME280_pressure;Samples;Min_cycle;Max_cycle;Signal;HPM_P1;HPM_P2
2023/05/20 00:02:15;;;;;;;4.05;1.70;;;12.60;99.90;;;;;;5032990;28;20186;-82
2023/05/20 00:04:40;;;;;;;2.45;1.38;;;12.50;99.90;;;;;;5033503;28;20178;-82
2023/05/20 00:07:06;;;;;;;10.23;1.60;;;12.50;99.90;;;;;;5033149;28;20506;-82
2023/05/20 00:09:32;;;;;;;1.67;1.20;;;12.40;99.90;;;;;;5030733;28;20283;-82
2023/05/20 00:11:57;;;;;;;1.90;1.30;;;12.40;99.90;;;;;;5033000;28;20187;-82
2023/05/20 00:14:23;;;;;;;2.38;1.40;;;12.30;99.90;;;;;;5033106;28;20293;-83
2023/05/20 00:16:49;;;;;;;4.82;1.70;;;12.40;99.90;;;;;;5030893;28;20598;-83
2023/05/20 00:19:15;;;;;;;2.60;1.73;;;12.30;99.90;;;;;;5033213;28;20253;-83
2023/05/20 00:21:41;;;;;;;5.97;1.90;;;12.30;99.90;;;;;;5032972;28;20171;-83
2023/05/20 00:24:07;;;;;;;3.65;1.30;;;12.30;99.90;;;;;;5032887;28;20620;-83
2023/05/20 00:26:32;;;;;;;4.40;1.40;;;12.30;99.90;;;;;;5035133;28;20539;-83
2023/05/20 00:28:58;;;;;;;2.85;1.42;;;12.30;99.90;;;;;;5036928;28;20174;-83
2023/05/20 00:31:24;;;;;;;2.75;1.60;;;12.20;99.90;;;;;;5036592;28;20639;-83
2023/05/20 00:33:49;;;;;;;2.60;1.20;;;12.20;99.90;;;;;;5036811;28;20551;-82
2023/05/20 00:36:15;;;;;;;3.97;1.65;;;12.20;99.90;;;;;;5035518;28;20218;-82
2023/05/20 00:38:41;;;;;;;4.28;1.60;;;12.20;99.90;;;;;;5036654;28;20170;-82
2023/05/20 00:41:06;;;;;;;2.65;1.27;;;12.20;99.90;;;;;;5036364;28;20174;-83
2023/05/20 00:43:32;;;;;;;2.80;1.60;;;12.10;99.90;;;;;;5036624;28;20174;-83
2023/05/20 00:45:59;;;;;;;3.25;1.60;;;12.10;99.90;;;;;;5036421;28;20537;-82
2023/05/20 00:48:25;;;;;;;2.67;1.40;;;12.00;99.90;;;;;;5036891;28;20171;-83
2023/05/20 00:50:51;;;;;;;4.97;1.38;;;12.00;99.90;;;;;;5035146;28;20225;-83
2023/05/20 00:53:17;;;;;;;3.13;1.70;;;12.00;99.90;;;;;;5034930;28;20252;-83
2023/05/20 00:55:43;;;;;;;2.83;1.50;;;12.00;99.90;;;;;;5036441;28;20182;-83
2023/05/20 00:58:10;;;;;;;2.92;1.67;;;11.90;99.90;;;;;;5035258;28;20224;-82
2023/05/20 01:00:36;;;;;;;5.97;1.38;;;12.00;99.90;;;;;;5036103;28;20229;-82
2023/05/20 01:03:01;;;;;;;2.33;1.80;;;12.00;99.90;;;;;;5036236;28;20277;-83
2023/05/20 01:05:27;;;;;;;2.35;1.50;;;11.90;99.90;;;;;;5035074;28;20609;-82
2023/05/20 01:07:53;;;;;;;2.70;1.30;;;11.80;99.90;;;;;;5474164;22;20940;-82
2023/05/20 01:10:20;;;;;;;2.97;1.40;;;11.80;99.90;;;;;;5014804;28;20683;-83
2023/05/20 01:12:49;;;;;;;4.07;1.77;;;11.70;99.90;;;;;;5016220;28;20171;-82
2023/05/20 01:15:16;;;;;;;3.72;1.60;;;11.80;99.90;;;;;;5014927;28;20206;-83
2023/05/20 01:17:48;;;;;;;2.15;1.30;;;11.70;99.90;;;;;;5015040;28;20179;-83
2023/05/20 01:20:14;;;;;;;4.13;1.50;;;11.70;99.90;;;;;;5014771;28;20179;-83
2023/05/20 01:22:56;;;;;;;2.75;1.40;;;11.70;99.90;;;;;;5015666;28;20156;-83
2023/05/20 01:25:23;;;;;;;4.45;2.20;;;11.70;99.90;;;;;;5016093;28;20179;-83
2023/05/20 01:27:51;;;;;;;1.92;1.40;;;11.60;99.90;;;;;;5014884;28;20183;-82
2023/05/20 01:30:18;;;;;;;2.35;1.45;;;11.60;99.90;;;;;;5015043;28;20175;-82
2023/05/20 01:33:06;;;;;;;6.18;1.50;;;11.60;99.90;;;;;;5015723;28;20163;-82
2023/05/20 01:35:33;;;;;;;1.90;1.50;;;11.60;99.90;;;;;;5031177;28;20195;-82
2023/05/20 01:38:00;;;;;;;2.78;1.33;;;11.70;99.90;;;;;;5014827;28;20171;-83
2023/05/20 01:40:27;;;;;;;2.22;1.58;;;11.70;99.90;;;;;;5015843;28;20171;-83
2023/05/20 01:42:54;;;;;;;3.78;1.55;;;11.70;99.90;;;;;;5015634;28;20175;-82
2023/05/20 01:45:22;;;;;;;2.03;1.33;;;11.60;99.90;;;;;;5015685;28;20225;-84
2023/05/20 01:47:48;;;;;;;1.48;1.20;;;11.60;99.90;;;;;;5015688;28;20680;-82
2023/05/20 01:50:14;;;;;;;3.38;1.60;;;11.50;99.90;;;;;;5030821;28;20183;-83
2023/05/20 01:52:40;;;;;;;1.70;1.25;;;11.60;99.90;;;;;;5015511;28;20532;-82
2023/05/20 01:55:06;;;;;;;2.33;1.50;;;11.50;99.90;;;;;;5015333;28;20226;-83
2023/05/20 01:57:31;;;;;;;2.47;1.58;;;11.40;99.90;;;;;;5015468;28;20253;-83
2023/05/20 01:59:57;;;;;;;3.38;1.52;;;11.40;99.90;;;;;;5016053;28;20267;-82
2023/05/20 02:02:23;;;;;;;3.85;1.60;;;11.30;99.90;;;;;;5035068;28;20232;-82
2023/05/20 02:04:50;;;;;;;4.07;1.50;;;11.30;99.90;;;;;;5033852;28;20289;-83
2023/05/20 02:07:17;;;;;;;5.45;1.65;;;11.30;99.90;;;;;;5050542;28;20174;-84
2023/05/20 02:09:44;;;;;;;4.32;1.40;;;11.30;99.90;;;;;;5033517;28;20258;-83
2023/05/20 02:12:15;;;;;;;2.38;1.30;;;11.40;99.90;;;;;;5034960;28;20167;-83
2023/05/20 02:14:44;;;;;;;1.83;1.10;;;11.40;99.90;;;;;;5034820;28;20199;-82
2023/05/20 02:17:10;;;;;;;2.28;1.50;;;11.40;99.90;;;;;;5034971;28;20175;-83
2023/05/20 02:19:36;;;;;;;4.55;1.40;;;11.40;99.90;;;;;;5034908;28;20178;-83
2023/05/20 02:22:02;;;;;;;3.22;1.30;;;11.40;99.90;;;;;;5050291;28;20174;-82
2023/05/20 02:24:28;;;;;;;3.25;1.67;;;11.40;99.90;;;;;;5034262;28;20182;-82
2023/05/20 02:26:54;;;;;;;5.38;1.40;;;11.30;99.90;;;;;;5034678;28;20182;-82
2023/05/20 02:29:21;;;;;;;2.45;1.50;;;11.30;99.90;;;;;;5034423;28;20178;-82
2023/05/20 02:31:47;;;;;;;2.10;1.30;;;11.30;99.90;;;;;;5017057;28;20609;-82
2023/05/20 02:34:14;;;;;;;1.63;1.30;;;11.30;99.90;;;;;;5014649;28;20205;-82
2023/05/20 02:36:41;;;;;;;2.65;1.50;;;11.20;99.90;;;;;;5013444;28;20517;-81
2023/05/20 02:39:06;;;;;;;2.13;1.40;;;11.20;99.90;;;;;;5014496;28;20519;-82
2023/05/20 02:41:32;;;;;;;1.63;1.17;;;11.20;99.90;;;;;;5014502;28;20175;-82
2023/05/20 02:43:58;;;;;;;2.72;1.40;;;11.20;99.90;;;;;;5014506;28;20163;-81
2023/05/20 02:46:24;;;;;;;2.03;1.30;;;11.10;99.90;;;;;;5013335;28;20265;-81
2023/05/20 02:48:49;;;;;;;3.28;1.20;;;11.10;99.90;;;;;;5014264;28;20225;-81
2023/05/20 02:51:15;;;;;;;2.08;1.30;;;11.10;99.90;;;;;;5014104;28;20510;-82
2023/05/20 02:53:41;;;;;;;4.50;1.40;;;11.10;99.90;;;;;;5014165;28;20222;-82
2023/05/20 02:56:07;;;;;;;1.85;1.45;;;11.10;99.90;;;;;;5012950;28;20186;-82
2023/05/20 02:58:34;;;;;;;3.45;1.42;;;11.10;99.90;;;;;;5013045;28;20953;-82
2023/05/20 03:01:01;;;;;;;4.57;1.58;;;11.00;99.90;;;;;;5029475;28;20520;-82
2023/05/20 03:03:26;;;;;;;3.22;1.50;;;11.00;99.90;;;;;;5029440;28;20232;-82
2023/05/20 03:05:53;;;;;;;3.20;1.60;;;11.00;99.90;;;;;;5029691;28;20179;-82
2023/05/20 03:08:21;;;;;;;1.98;1.60;;;11.00;99.90;;;;;;5013858;28;20580;-83
2023/05/20 03:10:47;;;;;;;1.67;1.50;;;11.00;99.90;;;;;;5014157;28;20175;-83
2023/05/20 03:13:14;;;;;;;3.38;1.90;;;11.00;99.90;;;;;;5029170;28;20187;-84
2023/05/20 03:15:44;;;;;;;7.20;1.83;;;11.00;99.90;;;;;;5012934;28;20175;-82
2023/05/20 03:18:11;;;;;;;6.38;1.65;;;11.00;99.90;;;;;;5012990;28;20182;-82
2023/05/20 03:20:37;;;;;;;3.00;1.73;;;11.00;99.90;;;;;;5012825;28;20551;-82
2023/05/20 03:23:04;;;;;;;1.80;1.52;;;11.00;99.90;;;;;;5013628;28;20217;-82
2023/05/20 03:25:30;;;;;;;2.08;1.60;;;11.00;99.90;;;;;;5012768;28;20187;-83
2023/05/20 03:27:58;;;;;;;3.92;1.80;;;10.90;99.90;;;;;;5012829;28;20183;-82
2023/05/20 03:30:25;;;;;;;4.47;1.80;;;10.90;99.90;;;;;;5014022;28;20270;-82
2023/05/20 03:32:51;;;;;;;3.35;1.42;;;10.90;99.90;;;;;;5029145;28;20176;-82
2023/05/20 03:35:16;;;;;;;2.60;1.67;;;10.90;99.90;;;;;;5013912;28;20313;-82
2023/05/20 03:37:42;;;;;;;2.85;1.60;;;10.70;99.90;;;;;;5012557;28;20233;-82
2023/05/20 03:40:09;;;;;;;3.63;1.77;;;10.70;99.90;;;;;;5012143;28;20190;-82
2023/05/20 03:42:36;;;;;;;3.17;1.60;;;10.70;99.90;;;;;;5013742;28;20163;-83
2023/05/20 03:45:02;;;;;;;3.28;1.80;;;10.70;99.90;;;;;;5028700;28;20185;-83
2023/05/20 03:47:27;;;;;;;6.72;1.90;;;10.70;99.90;;;;;;5012542;28;20179;-82
2023/05/20 03:49:53;;;;;;;2.72;1.23;;;10.70;99.90;;;;;;5029032;28;20171;-82
2023/05/20 03:52:19;;;;;;;2.70;1.38;;;10.70;99.90;;;;;;5013595;28;20173;-82
2023/05/20 03:54:45;;;;;;;5.75;1.73;;;10.70;99.90;;;;;;5028465;28;20311;-83
2023/05/20 03:57:11;;;;;;;3.78;1.58;;;10.60;99.90;;;;;;5012109;28;20183;-83
2023/05/20 03:59:37;;;;;;;4.40;1.70;;;10.70;99.90;;;;;;5013627;28;20179;-82
2023/05/20 04:02:04;;;;;;;4.15;1.48;;;10.60;99.90;;;;;;5016582;28;20225;-82
2023/05/20 04:04:29;;;;;;;2.90;1.70;;;10.70;99.90;;;;;;5017781;28;20166;-83
2023/05/20 04:06:55;;;;;;;2.35;1.67;;;10.70;99.90;;;;;;5017394;28;20501;-83
2023/05/20 04:09:25;;;;;;;4.18;1.83;;;10.70;99.90;;;;;;5015660;28;20241;-82
2023/05/20 04:11:51;;;;;;;5.35;1.67;;;10.70;99.90;;;;;;5017481;28;20597;-82
2023/05/20 04:14:17;;;;;;;3.92;1.45;;;10.70;99.90;;;;;;5017473;28;20626;-83
2023/05/20 04:16:43;;;;;;;2.08;1.55;;;10.80;99.90;;;;;;5017526;28;20202;-83
2023/05/20 04:19:09;;;;;;;2.60;1.60;;;10.70;99.90;;;;;;5032531;28;20183;-83
2023/05/20 04:21:35;;;;;;;2.83;1.70;;;10.70;99.90;;;;;;5032418;28;20175;-82
2023/05/20 04:24:01;;;;;;;5.00;1.70;;;10.80;99.90;;;;;;5016935;28;20664;-83
2023/05/20 04:26:27;;;;;;;2.08;1.55;;;10.80;99.90;;;;;;5015907;28;20193;-83
2023/05/20 04:28:57;;;;;;;6.15;1.70;;;10.70;99.90;;;;;;5015964;28;20183;-83
2023/05/20 04:31:25;;;;;;;2.67;1.70;;;10.70;99.90;;;;;;5017285;28;20167;-83
2023/05/20 04:33:52;;;;;;;2.50;1.50;;;10.80;99.90;;;;;;5015601;28;20210;-83
2023/05/20 04:36:18;;;;;;;4.50;1.88;;;10.80;99.90;;;;;;5016914;28;20258;-83
2023/05/20 04:38:43;;;;;;;3.38;1.90;;;10.80;99.90;;;;;;5016709;28;20266;-82
2023/05/20 04:41:10;;;;;;;5.88;1.85;;;10.90;99.90;;;;;;5032051;28;20229;-83
2023/05/20 04:43:38;;;;;;;6.20;2.08;;;11.00;99.90;;;;;;5031685;28;20174;-85
2023/05/20 04:46:04;;;;;;;4.60;1.80;;;11.00;99.90;;;;;;5015676;28;20318;-83
2023/05/20 04:48:31;;;;;;;3.45;1.73;;;11.00;99.90;;;;;;5015476;28;20560;-83
2023/05/20 04:50:56;;;;;;;3.42;1.88;;;11.10;99.90;;;;;;5016780;28;20493;-82
2023/05/20 04:53:24;;;;;;;2.30;1.65;;;11.20;99.90;;;;;;5016172;28;20210;-83
2023/05/20 04:55:53;;;;;;;6.22;1.77;;;11.30;99.90;;;;;;5016114;28;20186;-82
2023/05/20 04:58:23;;;;;;;2.33;1.50;;;11.30;99.90;;;;;;5012506;28;20166;-82
2023/05/20 05:00:51;;;;;;;2.40;1.60;;;11.30;99.90;;;;;;5014641;28;20618;-82
2023/05/20 05:03:17;;;;;;;5.43;2.00;;;11.40;99.90;;;;;;5015881;28;20174;-82
2023/05/20 05:05:43;;;;;;;2.95;1.98;;;11.50;99.90;;;;;;5015029;28;20218;-83
2023/05/20 05:08:12;;;;;;;2.17;1.80;;;11.50;99.90;;;;;;5015831;28;20238;-83
2023/05/20 05:10:38;;;;;;;3.45;2.10;;;11.60;99.90;;;;;;5016013;28;20176;-83
2023/05/20 05:13:03;;;;;;;3.28;1.98;;;11.60;99.90;;;;;;5014022;28;20178;-82
2023/05/20 05:15:29;;;;;;;3.85;2.20;;;11.70;99.90;;;;;;5014404;28;20183;-83
2023/05/20 05:17:55;;;;;;;3.40;2.20;;;11.70;99.90;;;;;;5015799;28;20171;-83
2023/05/20 05:20:21;;;;;;;4.70;1.90;;;11.80;99.90;;;;;;5016070;28;20171;-83
2023/05/20 05:22:46;;;;;;;4.28;1.83;;;11.80;99.90;;;;;;5016259;28;20270;-83
2023/05/20 05:25:12;;;;;;;13.25;2.20;;;11.90;99.90;;;;;;5016046;28;20668;-83
2023/05/20 05:27:39;;;;;;;3.42;2.13;;;11.90;99.90;;;;;;5016187;28;20179;-83
2023/05/20 05:30:06;;;;;;;3.88;1.92;;;12.00;99.90;;;;;;5016028;28;20595;-83
2023/05/20 05:32:32;;;;;;;7.13;2.55;;;12.10;99.90;;;;;;5031038;28;20191;-83
2023/05/20 05:34:58;;;;;;;2.83;1.90;;;12.10;99.90;;;;;;5015755;28;20218;-84
2023/05/20 05:37:24;;;;;;;8.05;2.40;;;12.10;99.90;;;;;;5015918;28;20171;-84
2023/05/20 05:39:50;;;;;;;4.18;2.20;;;12.20;99.90;;;;;;5030574;28;20186;-84
2023/05/20 05:42:16;;;;;;;7.90;2.47;;;12.20;99.90;;;;;;5014243;28;20644;-84
2023/05/20 05:44:41;;;;;;;5.30;2.22;;;12.20;99.90;;;;;;5013564;28;20194;-83
2023/05/20 05:47:07;;;;;;;3.28;2.10;;;12.20;99.90;;;;;;5013674;28;20565;-83
2023/05/20 05:49:33;;;;;;;3.95;2.28;;;12.20;99.90;;;;;;5013970;28;20629;-83
2023/05/20 05:51:59;;;;;;;4.30;2.50;;;12.30;99.90;;;;;;5014090;28;20509;-83
2023/05/20 05:54:25;;;;;;;4.85;2.50;;;12.30;99.90;;;;;;5014869;28;20198;-83
2023/05/20 05:56:52;;;;;;;3.08;2.15;;;12.40;99.90;;;;;;5014424;28;20186;-84
2023/05/20 05:59:18;;;;;;;2.60;2.15;;;12.50;99.90;;;;;;5013921;28;20179;-85
2023/05/20 06:01:44;;;;;;;3.88;2.42;;;12.70;99.90;;;;;;5014223;28;20172;-83
2023/05/20 06:04:10;;;;;;;4.68;2.78;;;12.70;99.90;;;;;;5015297;28;20222;-84
2023/05/20 06:06:36;;;;;;;6.95;2.75;;;12.80;99.90;;;;;;5015307;28;20262;-84
2023/05/20 06:09:02;;;;;;;4.22;2.70;;;13.00;99.90;;;;;;5030074;28;20242;-83
2023/05/20 06:11:27;;;;;;;4.10;3.05;;;13.00;99.90;;;;;;5015389;28;20177;-82
2023/05/20 06:13:53;;;;;;;4.65;2.88;;;13.10;99.90;;;;;;5015066;28;20199;-83
2023/05/20 06:16:19;;;;;;;4.18;2.80;;;13.10;99.90;;;;;;5015077;28;20182;-85
2023/05/20 06:18:46;;;;;;;5.47;3.28;;;13.20;99.90;;;;;;5013477;28;20270;-86
2023/05/20 06:21:11;;;;;;;7.93;3.40;;;13.30;99.90;;;;;;5014771;28;20672;-83
2023/05/20 06:23:37;;;;;;;5.35;3.47;;;13.30;99.90;;;;;;5022563;28;20178;-84
2023/05/20 06:26:03;;;;;;;5.03;3.50;;;13.30;99.90;;;;;;5049899;28;20231;-88
2023/05/20 06:28:29;;;;;;;7.05;3.75;;;13.30;99.90;;;;;;5031849;28;20253;-83
2023/05/20 06:30:56;;;;;;;6.03;3.70;;;13.40;99.90;;;;;;5014407;28;20207;-83
2023/05/20 06:33:25;;;;;;;6.45;3.90;;;13.50;99.90;;;;;;5013841;28;20184;-83
2023/05/20 06:35:52;;;;;;;5.28;3.70;;;13.60;99.90;;;;;;5029945;28;20175;-83
2023/05/20 06:38:18;;;;;;;7.05;4.20;;;13.80;99.90;;;;;;5030021;28;20176;-86
2023/05/20 06:40:44;;;;;;;8.70;4.35;;;13.90;99.90;;;;;;5028815;28;20186;-85
2023/05/20 06:43:10;;;;;;;6.38;4.20;;;14.00;99.90;;;;;;5014266;28;20518;-83
2023/05/20 06:45:36;;;;;;;5.85;4.28;;;14.10;99.90;;;;;;5013495;28;20198;-82
2023/05/20 06:48:02;;;;;;;7.80;4.28;;;14.20;99.90;;;;;;5013931;28;20175;-82
2023/05/20 06:50:27;;;;;;;6.32;4.60;;;14.30;99.90;;;;;;5012733;28;20182;-82
2023/05/20 06:52:53;;;;;;;8.18;4.57;;;14.40;99.90;;;;;;5012021;28;20823;-83
2023/05/20 06:55:19;;;;;;;7.38;4.22;;;14.40;99.90;;;;;;4994889;28;20200;-85
2023/05/20 06:57:45;;;;;;;5.03;4.15;;;14.50;99.90;;;;;;5010359;28;20660;-82
2023/05/20 07:00:12;;;;;;;10.57;4.25;;;14.50;99.90;;;;;;5014190;28;20201;-82
2023/05/20 07:02:38;;;;;;;5.93;3.85;;;14.50;99.90;;;;;;5013406;28;20625;-83
2023/05/20 07:05:05;;;;;;;7.63;4.15;;;14.50;99.90;;;;;;5029132;28;20185;-83
2023/05/20 07:07:31;;;;;;;10.07;4.63;;;14.60;99.90;;;;;;5029978;28;20179;-84
2023/05/20 07:09:57;;;;;;;6.40;4.25;;;14.60;99.90;;;;;;5014223;28;20222;-87
2023/05/20 07:12:23;;;;;;;6.20;3.70;;;14.80;99.90;;;;;;5011972;28;20242;-86
2023/05/20 07:14:49;;;;;;;8.30;3.90;;;15.00;99.90;;;;;;5013453;28;20210;-84
2023/05/20 07:17:15;;;;;;;6.47;3.97;;;15.20;99.90;;;;;;5013934;28;20230;-86
2023/05/20 07:19:41;;;;;;;5.57;3.85;;;15.20;99.90;;;;;;5027749;28;20531;-83
2023/05/20 07:22:07;;;;;;;5.35;3.70;;;15.20;99.90;;;;;;5029214;28;20241;-82
2023/05/20 07:24:33;;;;;;;4.78;3.72;;;15.30;99.90;;;;;;5012509;28;20175;-83
2023/05/20 07:26:58;;;;;;;4.57;3.63;;;15.50;99.90;;;;;;5012922;28;20183;-82
2023/05/20 07:29:24;;;;;;;5.85;3.40;;;15.50;99.90;;;;;;5012742;28;20529;-83
2023/05/20 07:31:50;;;;;;;6.45;3.65;;;15.70;99.90;;;;;;5013919;28;20194;-82
2023/05/20 07:34:15;;;;;;;6.38;3.00;;;15.80;99.90;;;;;;5027513;28;20215;-83
2023/05/20 07:36:42;;;;;;;3.58;3.05;;;15.70;99.90;;;;;;5013539;28;20171;-82
2023/05/20 07:39:09;;;;;;;7.35;3.90;;;15.60;99.90;;;;;;5012603;28;20568;-83
2023/05/20 07:41:36;;;;;;;3.70;3.00;;;15.50;99.90;;;;;;5028755;28;20634;-83
2023/05/20 07:44:04;;;;;;;5.30;3.15;;;15.50;99.90;;;;;;5013723;28;20182;-82
2023/05/20 07:46:30;;;;;;;5.40;3.17;;;15.50;99.90;;;;;;5012684;28;20171;-83
2023/05/20 07:48:56;;;;;;;3.53;3.13;;;15.20;99.90;;;;;;5013507;28;20571;-82
2023/05/20 07:51:22;;;;;;;5.22;3.03;;;15.00;99.90;;;;;;5013791;28;20175;-83
2023/05/20 07:53:48;;;;;;;4.28;3.22;;;14.90;99.90;;;;;;5013672;28;20642;-82
2023/05/20 07:56:14;;;;;;;4.10;2.83;;;14.80;99.90;;;;;;5013603;28;20171;-83
2023/05/20 07:58:41;;;;;;;6.20;2.88;;;14.80;99.90;;;;;;5013723;28;20213;-85
2023/05/20 08:01:08;;;;;;;4.05;2.60;;;14.80;99.90;;;;;;5012779;28;20186;-85
2023/05/20 08:03:37;;;;;;;4.18;2.60;;;14.80;99.90;;;;;;5013327;28;20225;-82
2023/05/20 08:06:03;;;;;;;5.43;3.22;;;14.80;99.90;;;;;;5013691;28;20174;-82
2023/05/20 08:08:29;;;;;;;4.20;3.00;;;14.80;99.90;;;;;;5013336;28;20231;-82
2023/05/20 08:10:55;;;;;;;3.67;3.00;;;14.80;99.90;;;;;;5012172;28;20198;-82
2023/05/20 08:13:21;;;;;;;5.50;3.00;;;14.80;99.90;;;;;;5012090;28;20186;-83
2023/05/20 08:15:47;;;;;;;5.43;2.88;;;14.90;99.90;;;;;;5028859;28;20206;-83
2023/05/20 08:18:14;;;;;;;5.93;2.85;;;14.90;99.90;;;;;;5013319;28;20199;-82
2023/05/20 08:20:41;;;;;;;6.60;2.70;;;14.90;99.90;;;;;;5013331;28;20180;-82
2023/05/20 08:23:07;;;;;;;5.95;3.17;;;14.90;99.90;;;;;;5013149;28;20171;-82
2023/05/20 08:25:33;;;;;;;3.92;2.80;;;15.00;99.90;;;;;;5013310;28;20606;-82
2023/05/20 08:28:02;;;;;;;3.85;2.72;;;15.20;99.90;;;;;;5013499;28;20186;-83
2023/05/20 08:30:29;;;;;;;5.85;3.00;;;15.20;99.90;;;;;;5013435;28;20175;-82
2023/05/20 08:32:55;;;;;;;4.78;2.72;;;15.30;99.90;;;;;;5011749;28;20191;-82
2023/05/20 08:35:22;;;;;;;6.22;2.60;;;15.30;99.90;;;;;;5028865;28;20219;-82
2023/05/20 08:37:48;;;;;;;3.60;2.65;;;15.30;99.90;;;;;;5013485;28;20171;-82
2023/05/20 08:40:14;;;;;;;4.10;2.65;;;15.50;99.90;;;;;;5013082;28;20179;-83
2023/05/20 08:42:43;;;;;;;4.03;2.88;;;15.60;99.90;;;;;;5026774;28;20183;-82
2023/05/20 08:45:16;;;;;;;5.13;2.80;;;15.50;99.90;;;;;;5028581;28;20175;-83
2023/05/20 08:47:42;;;;;;;2.67;2.38;;;15.50;99.90;;;;;;5012670;28;20183;-83
2023/05/20 08:50:10;;;;;;;9.45;3.35;;;15.60;99.90;;;;;;5016588;28;20202;-82
2023/05/20 08:52:39;;;;;;;3.38;2.85;;;15.60;99.90;;;;;;5016555;28;20606;-82
2023/05/20 08:55:08;;;;;;;5.18;3.00;;;15.60;99.90;;;;;;5016607;28;20235;-82
2023/05/20 08:57:36;;;;;;;4.55;2.88;;;15.80;99.90;;;;;;5016457;28;20182;-82
2023/05/20 09:00:08;;;;;;;5.18;2.80;;;15.80;99.90;;;;;;5016611;28;20364;-82
2023/05/20 09:02:37;;;;;;;4.55;2.90;;;15.90;99.90;;;;;;5016454;28;20152;-82
2023/05/20 09:05:04;;;;;;;4.13;2.95;;;15.90;99.90;;;;;;5016321;28;20676;-82
2023/05/20 09:07:30;;;;;;;5.05;2.90;;;16.00;99.90;;;;;;5016456;28;20183;-82
2023/05/20 09:09:57;;;;;;;7.78;3.20;;;16.10;99.90;;;;;;5016227;28;20836;-82
2023/05/20 09:12:22;;;;;;;6.22;3.10;;;16.30;99.90;;;;;;5031135;28;20234;-82
2023/05/20 09:14:49;;;;;;;6.10;3.40;;;16.30;99.90;;;;;;5015072;28;20218;-82
2023/05/20 09:17:16;;;;;;;6.63;3.25;;;16.20;99.90;;;;;;5016307;28;20159;-82
2023/05/20 09:19:42;;;;;;;7.22;3.58;;;16.10;99.90;;;;;;5014793;28;20650;-84
2023/05/20 09:22:08;;;;;;;7.63;3.40;;;16.10;99.90;;;;;;5016249;28;20207;-83
2023/05/20 09:24:33;;;;;;;5.78;3.20;;;16.20;99.90;;;;;;5016188;28;20266;-84
2023/05/20 09:26:59;;;;;;;5.35;3.40;;;16.30;99.90;;;;;;5016180;28;20167;-84
2023/05/20 09:29:25;;;;;;;4.43;3.42;;;16.50;99.90;;;;;;5015860;28;20606;-82
2023/05/20 09:31:55;;;;;;;4.50;3.75;;;16.90;99.90;;;;;;5015822;28;20258;-83
2023/05/20 09:34:21;;;;;;;5.25;3.80;;;17.10;99.90;;;;;;5015697;28;20646;-86
2023/05/20 09:36:49;;;;;;;7.68;4.20;;;17.20;99.90;;;;;;5016022;28;20172;-83
2023/05/20 09:39:21;;;;;;;5.35;3.67;;;17.20;99.90;;;;;;5015852;28;20167;-83
2023/05/20 09:42:19;;;;;;;7.40;3.75;;;16.90;99.90;;;;;;5015823;28;20221;-83
2023/05/20 09:44:47;;;;;;;7.07;4.20;;;16.70;99.90;;;;;;5002952;28;20514;-83
2023/05/20 09:47:13;;;;;;;5.47;4.00;;;16.50;99.90;;;;;;5015768;28;20254;-83
2023/05/20 09:49:40;;;;;;;10.48;3.83;;;16.50;99.90;;;;;;5030927;28;20186;-82
2023/05/20 09:52:07;;;;;;;7.55;3.70;;;16.40;99.90;;;;;;5015703;28;20180;-82
2023/05/20 09:54:35;;;;;;;10.57;3.72;;;16.40;99.90;;;;;;5015462;28;20203;-81
2023/05/20 09:57:03;;;;;;;6.53;3.88;;;16.40;99.90;;;;;;5015428;28;20203;-84
2023/05/20 09:59:31;;;;;;;5.45;4.07;;;16.40;99.90;;;;;;5013396;28;20179;-85
2023/05/20 10:01:57;;;;;;;11.40;3.65;;;16.20;99.90;;;;;;5015492;28;20559;-83
2023/05/20 10:04:25;;;;;;;6.30;3.83;;;16.20;99.90;;;;;;5015349;28;20173;-82
2023/05/20 10:07:18;;;;;;;7.47;4.75;;;15.90;99.90;;;;;;5015691;28;20175;-82
2023/05/20 10:10:22;;;;;;;8.07;4.35;;;15.90;99.90;;;;;;5014982;28;20219;-83
2023/05/20 10:13:07;;;;;;;4.75;3.47;;;15.90;99.90;;;;;;5006195;28;20529;-83
2023/05/20 10:15:58;;;;;;;9.07;3.55;;;15.90;99.90;;;;;;5015001;28;20211;-83
2023/05/20 10:18:53;;;;;;;6.60;3.40;;;16.00;99.90;;;;;;5015258;28;20170;-83
2023/05/20 10:21:24;;;;;;;6.40;3.60;;;15.90;99.90;;;;;;5011632;28;20183;-83
2023/05/20 10:23:52;;;;;;;5.05;3.42;;;15.80;99.90;;;;;;5015051;28;20297;-82
2023/05/20 10:26:18;;;;;;;4.40;3.20;;;15.80;99.90;;;;;;5014977;28;20590;-83
2023/05/20 10:28:46;;;;;;;7.43;3.90;;;15.80;99.90;;;;;;5029979;28;20596;-82
2023/05/20 10:31:21;;;;;;;11.00;3.40;;;15.80;99.90;;;;;;5014899;28;20613;-84
2023/05/20 10:33:47;;;;;;;4.50;3.00;;;15.70;99.90;;;;;;5012386;28;20237;-82
2023/05/20 10:36:25;;;;;;;7.63;3.28;;;15.80;99.90;;;;;;5030056;28;20577;-83
2023/05/20 10:38:56;;;;;;;6.05;3.45;;;15.90;99.90;;;;;;5014702;28;20174;-82
2023/05/20 10:41:26;;;;;;;5.70;3.22;;;16.00;99.90;;;;;;5014705;28;20645;-83
2023/05/20 10:44:02;;;;;;;3.97;3.00;;;16.00;99.90;;;;;;5013987;28;20175;-83
2023/05/20 10:46:29;;;;;;;4.30;3.03;;;16.10;99.90;;;;;;5014787;28;20557;-84
2023/05/20 10:48:54;;;;;;;4.57;3.38;;;16.10;99.90;;;;;;5013083;28;20614;-83
2023/05/20 10:51:20;;;;;;;6.05;3.58;;;16.20;99.90;;;;;;5029614;28;20194;-82
2023/05/20 10:53:47;;;;;;;4.50;3.75;;;16.10;99.90;;;;;;5014414;28;20211;-81
2023/05/20 10:56:20;;;;;;;4.43;3.53;;;16.00;99.90;;;;;;5014582;28;20186;-82
2023/05/20 10:58:47;;;;;;;5.28;3.20;;;15.90;99.90;;;;;;5014263;28;20168;-81
2023/05/20 11:01:13;;;;;;;4.97;3.25;;;15.80;99.90;;;;;;5014293;28;20186;-83
2023/05/20 11:03:43;;;;;;;7.75;3.67;;;15.90;99.90;;;;;;5012750;28;20187;-82
2023/05/20 11:06:14;;;;;;;6.90;3.47;;;15.80;99.90;;;;;;5014042;28;20169;-82
2023/05/20 11:08:41;;;;;;;5.05;3.13;;;15.80;99.90;;;;;;5013156;28;20692;-81
2023/05/20 11:11:06;;;;;;;6.20;3.53;;;15.80;99.90;;;;;;5011138;28;20515;-83
2023/05/20 11:13:33;;;;;;;7.00;3.60;;;15.90;99.90;;;;;;5012178;28;20237;-83
2023/05/20 11:16:00;;;;;;;5.57;3.10;;;15.80;99.90;;;;;;5013109;28;20202;-81
2023/05/20 11:18:30;;;;;;;9.07;3.70;;;15.80;99.90;;;;;;5011109;28;20210;-81
2023/05/20 11:20:57;;;;;;;6.95;3.15;;;15.80;99.90;;;;;;5011677;28;20180;-82
2023/05/20 11:23:23;;;;;;;6.88;3.33;;;15.90;99.90;;;;;;5011895;28;20602;-82
2023/05/20 11:25:53;;;;;;;6.25;3.28;;;16.00;99.90;;;;;;5013316;28;20183;-82
2023/05/20 11:28:23;;;;;;;6.10;3.60;;;16.00;99.90;;;;;;5012504;28;20214;-80
2023/05/20 11:30:52;;;;;;;8.50;3.35;;;16.10;99.90;;;;;;5010073;28;20211;-82
2023/05/20 11:33:18;;;;;;;6.13;3.58;;;16.20;99.90;;;;;;5013718;28;20172;-83
2023/05/20 11:35:46;;;;;;;6.32;3.55;;;16.10;99.90;;;;;;5012883;28;20262;-81
2023/05/20 11:38:12;;;;;;;4.88;3.70;;;16.20;99.90;;;;;;5012128;28;20261;-83
2023/05/20 11:40:52;;;;;;;5.25;3.50;;;16.20;99.90;;;;;;5013456;28;20259;-80
2023/05/20 11:43:18;;;;;;;6.15;3.42;;;16.20;99.90;;;;;;5008557;28;20261;-83
2023/05/20 11:45:46;;;;;;;4.80;3.22;;;16.20;99.90;;;;;;5013568;28;20610;-83
2023/05/20 11:48:14;;;;;;;9.40;4.10;;;16.30;99.90;;;;;;5012365;28;20202;-81
2023/05/20 11:50:41;;;;;;;4.57;3.60;;;16.30;99.90;;;;;;5013727;28;20175;-82
2023/05/20 11:53:09;;;;;;;10.57;3.97;;;16.30;99.90;;;;;;5013752;28;20630;-82
2023/05/20 11:55:51;;;;;;;6.00;3.90;;;16.30;99.90;;;;;;5012225;28;20206;-82
2023/05/20 11:58:35;;;;;;;5.63;3.70;;;16.40;99.90;;;;;;5013545;28;20241;-82
2023/05/20 12:01:00;;;;;;;4.78;3.72;;;16.50;99.90;;;;;;5012748;28;20160;-81
2023/05/20 12:03:26;;;;;;;6.90;3.42;;;16.40;99.90;;;;;;5013493;28;20186;-83
2023/05/20 12:05:52;;;;;;;5.97;3.97;;;16.40;99.90;;;;;;5013410;28;20178;-82
2023/05/20 12:08:18;;;;;;;5.85;3.85;;;16.40;99.90;;;;;;5013354;28;20227;-82
2023/05/20 12:10:44;;;;;;;6.07;3.58;;;16.40;99.90;;;;;;5013447;28;20650;-82
2023/05/20 12:13:12;;;;;;;5.88;4.20;;;16.40;99.90;;;;;;5013224;28;20179;-82
2023/05/20 12:15:38;;;;;;;5.18;3.67;;;16.50;99.90;;;;;;5012344;28;20211;-82
2023/05/20 12:18:04;;;;;;;5.07;3.70;;;16.60;99.90;;;;;;5012381;28;20266;-83
2023/05/20 12:20:32;;;;;;;6.05;3.60;;;16.60;99.90;;;;;;5012159;28;20266;-82
2023/05/20 12:22:58;;;;;;;4.95;3.60;;;16.70;99.90;;;;;;5015945;28;20548;-81
2023/05/20 12:25:24;;;;;;;7.18;3.80;;;16.80;99.90;;;;;;5017201;28;20618;-82
2023/05/20 12:27:51;;;;;;;5.60;3.42;;;16.70;99.90;;;;;;5016860;28;20163;-81
2023/05/20 12:30:18;;;;;;;5.88;3.75;;;16.70;99.90;;;;;;5015870;28;20614;-82
2023/05/20 12:32:45;;;;;;;5.60;4.15;;;16.80;99.90;;;;;;5015531;28;20179;-82
2023/05/20 12:35:12;;;;;;;6.35;4.10;;;16.70;99.90;;;;;;5015660;28;20214;-84
2023/05/20 12:37:42;;;;;;;6.32;3.85;;;16.60;99.90;;;;;;5032182;28;20267;-82
2023/05/20 12:40:10;;;;;;;6.80;3.78;;;16.70;99.90;;;;;;5017031;28;20178;-83
2023/05/20 12:42:39;;;;;;;6.70;4.07;;;16.80;99.90;;;;;;5016637;28;20170;-83
2023/05/20 12:45:06;;;;;;;7.20;4.00;;;16.90;99.90;;;;;;5016374;28;20638;-83
2023/05/20 12:47:32;;;;;;;5.53;4.05;;;17.00;99.90;;;;;;5016933;28;20180;-82